Abbot, ME

3:55 PM EDT on May 27, 2015 (GMT -0400)
Abbot/Blanchard | | Change Station
CLOSE
Current Station
Personal Weather Station
Location: Abbot, ME
Elevation: 735 ft
Nearby Weather Stations

Elev 735 ft 45.22 °N, 69.55 °W | Updated 56 seconds ago

Partly Cloudy
Partly Cloudy
83.3 °F
Feels Like 87 °F
N
0.0
Wind Variable Wind from SSW
Gusts 4.0 mph

Today
High -- | Low -- °F
--% Chance of Precip.
Yesterday
High -- | Low -- °F
Precip. -- in
4:57 AM 8:14 PM
Waxing Gibbous, 69% visible
Pressure 29.98 in
Visibility 10.0 miles
Clouds Mostly Cloudy 5000 ft
Heat Index 87 °F
Dew Point 68 °F
Humidity 61%
Rainfall 0.00 in
Snow Depth Not available.
UV 5 out of 12
Pollen 9.30 out of 12
Air Quality Not available.
Flu Activity Local Activity
METAR KMLT 271853Z AUTO VRB06KT 10SM BKN050 30/18 A2997 RMK AO2 SLP150 T03000183

More Conditions Fewer Conditions

Pressure 29.98 in
Visibility 10.0 miles
Clouds Mostly Cloudy 5000 ft
Heat Index 87 °F
Dew Point 68 °F
Humidity 61%
Rainfall 0.00 in
Snow Depth Not available.
UV 5 out of 12
Pollen 9.30 out of 12
Air Quality Not available.
Flu Activity Local Activity
METAR KMLT 271853Z AUTO VRB06KT 10SM BKN050 30/18 A2997 RMK AO2 SLP150 T03000183

More Conditions Fewer Conditions

10-Day Weather Forecast

Almanac

Astronomy

May. 27, 2015 Rise Set
Actual Time
Civil Twilight
Nautical Twilight
Astronomical Twilight
Moon
Length of Visible Light
Length of Day
Tomorrow will be .
, % of the Moon is Illuminated

Today's Extremes

State Highs State Lows

Community

WunderPhotos

Upload Photos

1,824,774 photos uploaded!

WunderBlogs® & News

Nearby

Air Quality

  Air Quality AQ Index Pollutant
Not available.

Snow Depth

Station Depth Elevation

Earthquake Activity

City Distance Mag. Time & Date
Minimum magnitude displayed is 2.5.

Coastal Water Temperatures

Place Temperature

Stations

Nearby Weather Stations

Station Location Temp. Windchill Dew Point Humidity Wind Precip. Elev Updated Type